GMMX/RAK METAR and TAF weather

Enter ICAO airport designator
Station Type Date Time Source
GMMX METAR 2022/01/26 09:00 UTC NOAA

GMMX 260900Z VRB02KT 7000 SCT020 BKN080 09/08 Q1019 NOSIG


Station Type Date Time Source
GMMX Decoded METAR 2022/01/26 09:00 UTC NOAA

Marrakech, Morocco (GMMX) 31-37N 008-02W 466M
Jan 26, 2022 - 04:00 AM EST / 2022.01.26 0900 UTC
Wind: Variable at 2 MPH (2 KT):0
Visibility: 4 mile(s):0
Sky conditions: mostly cloudy
Temperature: 48 F (9 C)
Dew Point: 46 F (8 C)
Relative Humidity: 93%
Pressure (altimeter): 30.09 in. Hg (1019 hPa)
ob: GMMX 260900Z VRB02KT 7000 SCT020 BKN080 09/08 Q1019 NOSIG
cycle: 9

Station Type Date Time Source
GMMX TAF 2022/01/26 06:18 UTC NOAA

TAF GMMX 260500Z 2606/2712 10006KT 8000 BKN020
TEMPO 2606/2615 5000 TSRA SCT013 FEW030CB SCT080

Example: see airport list